Gorchs, Argentina
Current Conditions -  °F | °C
As of 6:00 PM on Sunday 21 Dec 2014 (Local Time) from SAEZ Reporting Station
Broken Clouds Broken Clouds  
Wind Chill: 22°   Ceiling: 4500
Heat Index: 22°   Visibility: 6mi
Dew Point:   Wind: 9mph
Humidity: 38%   Direction: 200°SSW
Pressure: 29.77"   Gusts: NA
Location:  35.61°S, 58.92°W
Report Text: SAEZ 212100Z 20008KT 130V210 9999 BKN045 22/07 Q1008
Loading
Personal Weather Stations






























Interactive Weather Map New forecast layout! Learn more

10-Day Weather Forecast

Advertisements
Track Severe Weather on mobile